createdAt,value
2023-01-28T00:01:45.262Z,100008.03
2023-01-28T00:06:47.517Z,100030.16
2023-01-28T00:11:49.697Z,100043.00
2023-01-28T00:16:51.933Z,100029.78
2023-01-28T00:21:54.118Z,100014.38
2023-01-28T00:26:56.296Z,100033.56
2023-01-28T00:31:58.532Z,100045.78
2023-01-28T00:37:04.644Z,100040.38
2023-01-28T00:42:06.816Z,100042.25
2023-01-28T00:47:09.004Z,100032.84
2023-01-28T00:52:11.228Z,100026.56
2023-01-28T00:57:13.493Z,100048.28
2023-01-28T01:02:15.784Z,100017.44
2023-01-28T01:07:23.338Z,99981.66
2023-01-28T01:12:25.817Z,100036.22
2023-01-28T01:17:31.896Z,100056.78
2023-01-28T01:22:35.460Z,100037.22
2023-01-28T01:27:38.252Z,100008.91
2023-01-28T01:32:40.556Z,100045.00
2023-01-28T01:37:44.973Z,100006.50
2023-01-28T01:42:47.490Z,100006.22
2023-01-28T01:48:06.558Z,100049.63
2023-01-28T01:53:17.579Z,100050.22
2023-01-28T01:58:22.946Z,100009.13
2023-01-28T02:03:51.702Z,100058.69
2023-01-28T02:08:57.909Z,100054.28
2023-01-28T02:14:03.378Z,100062.84
2023-01-28T02:19:06.821Z,100068.66
2023-01-28T02:24:20.021Z,100071.53
2023-01-28T02:29:32.341Z,100068.66
2023-01-28T02:34:58.954Z,100076.00
2023-01-28T02:40:13.717Z,100035.63
2023-01-28T02:45:53.770Z,100074.28
2023-01-28T02:51:03.734Z,100077.34
2023-01-28T02:56:19.386Z,100088.78
2023-01-28T03:01:24.633Z,100089.16
2023-01-28T03:06:40.251Z,100055.44
2023-01-28T03:12:05.477Z,100097.63
2023-01-28T03:17:40.654Z,100075.44
2023-01-28T03:23:04.512Z,99999.50
2023-01-28T03:28:30.409Z,100081.69
2023-01-28T03:33:54.372Z,100069.81
2023-01-28T03:38:58.669Z,100080.13
2023-01-28T03:44:19.414Z,100070.41
2023-01-28T03:49:22.702Z,100050.03
2023-01-28T03:54:24.987Z,100080.44
2023-01-28T03:59:27.506Z,100041.59
2023-01-28T04:04:32.819Z,100076.00
2023-01-28T04:09:36.234Z,100072.47
2023-01-28T04:15:01.355Z,100083.09
2023-01-28T04:20:06.775Z,100089.88
2023-01-28T04:25:09.985Z,100094.91
2023-01-28T04:30:15.295Z,100070.41
2023-01-28T04:35:27.826Z,100045.81
2023-01-28T04:40:36.074Z,100093.41
2023-01-28T04:45:45.179Z,100089.09
2023-01-28T04:51:08.049Z,100079.75
2023-01-28T04:56:15.686Z,100107.69
2023-01-28T05:01:18.401Z,100114.22
2023-01-28T05:06:20.698Z,100106.59
2023-01-28T05:11:23.530Z,100120.91
2023-01-28T05:16:32.662Z,100118.03
2023-01-28T05:21:34.831Z,100116.66
2023-01-28T05:26:43.648Z,100104.22
2023-01-28T05:31:48.095Z,100116.44
2023-01-28T05:36:53.082Z,100100.38
2023-01-28T05:42:04.542Z,100123.22
2023-01-28T05:47:09.071Z,100085.22
2023-01-28T05:52:40.505Z,100125.97
2023-01-28T05:57:50.050Z,100112.56
2023-01-28T06:02:54.507Z,100119.47
2023-01-28T06:07:58.173Z,100103.50
2023-01-28T06:13:02.071Z,100122.50
2023-01-28T06:18:15.946Z,100147.19
2023-01-28T06:23:18.494Z,100120.72
2023-01-28T06:28:20.819Z,100126.03
2023-01-28T06:33:24.412Z,100145.53
2023-01-28T06:38:26.710Z,100156.56
2023-01-28T06:43:30.881Z,100133.56
2023-01-28T06:48:33.326Z,100149.53
2023-01-28T06:53:35.422Z,100164.78
2023-01-28T06:58:37.546Z,100149.94
2023-01-28T07:03:39.667Z,100124.44
2023-01-28T07:08:41.929Z,100116.69
2023-01-28T07:13:44.148Z,100141.47
2023-01-28T07:18:49.093Z,100121.50
2023-01-28T07:23:51.431Z,100136.66
2023-01-28T07:28:53.544Z,100113.81
2023-01-28T07:33:55.694Z,100134.53
2023-01-28T07:39:00.368Z,100152.94
2023-01-28T07:44:02.852Z,100151.19
2023-01-28T07:49:04.940Z,100156.28
2023-01-28T07:54:07.216Z,100123.47
2023-01-28T07:59:09.566Z,100121.41
2023-01-28T08:04:11.891Z,100134.59
2023-01-28T08:09:14.669Z,100105.47
2023-01-28T08:14:16.904Z,100121.09
2023-01-28T08:19:28.384Z,100133.13
2023-01-28T08:24:30.657Z,100115.69
2023-01-28T08:29:33.422Z,100103.97
2023-01-28T08:34:35.720Z,100134.63
2023-01-28T08:39:38.050Z,100131.84
2023-01-28T08:44:40.270Z,100123.59
2023-01-28T08:49:42.518Z,100120.53
2023-01-28T08:54:44.654Z,100140.34
2023-01-28T08:59:47.787Z,100110.44
2023-01-28T09:04:49.930Z,100136.31
2023-01-28T09:09:52.030Z,100122.34
2023-01-28T09:14:54.445Z,100113.16
2023-01-28T09:19:56.766Z,100118.72
2023-01-28T09:24:58.956Z,100112.38
2023-01-28T09:30:01.236Z,100129.31
2023-01-28T09:35:06.228Z,100128.53
2023-01-28T09:40:26.299Z,100089.16
2023-01-28T09:45:45.177Z,100116.06
2023-01-28T09:50:49.998Z,100067.63
2023-01-28T09:55:57.124Z,100103.56
2023-01-28T10:01:19.347Z,100110.44
2023-01-28T10:06:45.792Z,100102.19
2023-01-28T10:11:51.047Z,100100.22
2023-01-28T10:17:21.135Z,100086.84
2023-01-28T10:22:27.472Z,100093.25
2023-01-28T10:27:31.548Z,100050.72
2023-01-28T10:32:35.629Z,100080.31
2023-01-28T10:37:39.049Z,100083.09
2023-01-28T10:42:41.261Z,100046.09
2023-01-28T10:47:49.260Z,100044.91
2023-01-28T10:52:59.239Z,100045.50
2023-01-28T10:58:04.299Z,100054.94
2023-01-28T11:03:06.711Z,100061.06
2023-01-28T11:08:19.015Z,100057.88
2023-01-28T11:13:22.656Z,100056.16
2023-01-28T11:18:28.180Z,100039.81
2023-01-28T11:23:34.502Z,100045.50
2023-01-28T11:28:41.485Z,100038.81
2023-01-28T11:33:49.608Z,100015.28
2023-01-28T11:39:02.485Z,99991.97
2023-01-28T11:44:24.463Z,100020.38
2023-01-28T11:49:38.750Z,100021.25
2023-01-28T11:55:07.033Z,100008.94
2023-01-28T12:00:12.505Z,100009.66
2023-01-28T12:05:18.003Z,100009.66
2023-01-28T12:10:41.608Z,100008.22
2023-01-28T12:16:00.510Z,100009.81
2023-01-28T12:21:11.060Z,99999.41
2023-01-28T12:26:17.107Z,99968.53
2023-01-28T12:31:39.286Z,99990.31
2023-01-28T12:36:46.270Z,99983.34
2023-01-28T12:41:51.562Z,99976.44
2023-01-28T12:47:02.819Z,99951.78
2023-01-28T12:52:24.868Z,99938.88
2023-01-28T12:57:29.050Z,99940.28
2023-01-28T13:02:35.454Z,99938.72
2023-01-28T13:08:10.595Z,99974.16
2023-01-28T13:13:36.666Z,99926.59
2023-01-28T13:18:42.701Z,99973.69
2023-01-28T13:23:49.980Z,99947.25
2023-01-28T13:28:53.508Z,99882.72
2023-01-28T13:33:55.736Z,99976.16
2023-01-28T13:39:20.438Z,99965.34
2023-01-28T13:44:25.541Z,99963.19
2023-01-28T13:49:34.843Z,99887.41
2023-01-28T13:54:59.517Z,99952.44
2023-01-28T14:00:28.101Z,99930.69
2023-01-28T14:06:05.095Z,99923.94
2023-01-28T14:11:38.626Z,99938.47
2023-01-28T14:17:14.728Z,99943.69
2023-01-28T14:22:20.060Z,99913.25
2023-01-28T14:27:34.999Z,99923.44
2023-01-28T14:32:37.301Z,99911.66
2023-01-28T14:37:40.782Z,99904.69
2023-01-28T14:42:49.254Z,99908.41
2023-01-28T14:48:19.556Z,99891.00
2023-01-28T14:53:56.643Z,99801.84
2023-01-28T14:59:12.367Z,99879.34
2023-01-28T15:04:31.062Z,99921.06
2023-01-28T15:09:33.264Z,99896.91
2023-01-28T15:14:35.475Z,99917.34
2023-01-28T15:19:37.837Z,99903.28
2023-01-28T15:24:55.433Z,99854.00
2023-01-28T15:30:01.988Z,99896.50
2023-01-28T15:35:14.379Z,99870.25
2023-01-28T15:40:21.511Z,99891.47
2023-01-28T15:45:26.236Z,99846.47
2023-01-28T15:50:28.565Z,99887.34
2023-01-28T15:55:36.157Z,99864.63
2023-01-28T16:00:39.071Z,99826.91
2023-01-28T16:05:42.707Z,99867.66
2023-01-28T16:10:52.991Z,99857.50
2023-01-28T16:15:57.106Z,99810.81
2023-01-28T16:21:00.270Z,99842.03
2023-01-28T16:26:25.306Z,99857.94
2023-01-28T16:31:27.808Z,99857.22
2023-01-28T16:36:30.436Z,99823.56
2023-01-28T16:41:40.578Z,99866.78
2023-01-28T16:46:44.474Z,99812.44
2023-01-28T16:51:47.180Z,99852.03
2023-01-28T16:56:49.663Z,99769.75
2023-01-28T17:01:52.209Z,99828.59
2023-01-28T17:06:54.615Z,99841.00
2023-01-28T17:11:57.496Z,99841.00
2023-01-28T17:16:59.776Z,99819.09
2023-01-28T17:22:02.789Z,99828.44
2023-01-28T17:27:06.107Z,99831.47
2023-01-28T17:32:08.630Z,99810.94
2023-01-28T17:37:11.003Z,99799.13
2023-01-28T17:42:13.584Z,99830.66
2023-01-28T17:47:16.174Z,99785.59
2023-01-28T17:52:18.678Z,99805.16
2023-01-28T17:57:21.358Z,99782.53
2023-01-28T18:02:24.407Z,99792.16
2023-01-28T18:07:26.717Z,99764.34
2023-01-28T18:12:29.101Z,99796.16
2023-01-28T18:17:31.415Z,99777.69
2023-01-28T18:22:34.091Z,99781.41
2023-01-28T18:27:36.438Z,99783.38
2023-01-28T18:32:39.413Z,99773.94
2023-01-28T18:37:44.418Z,99781.25
2023-01-28T18:42:46.677Z,99740.94
2023-01-28T18:47:49.074Z,99762.00
2023-01-28T18:52:53.809Z,99770.06
2023-01-28T18:57:57.363Z,99757.88
2023-01-28T19:03:01.422Z,99763.97
2023-01-28T19:08:06.139Z,99734.91
2023-01-28T19:13:08.468Z,99735.00
2023-01-28T19:18:10.923Z,99756.81
2023-01-28T19:23:13.569Z,99754.25
2023-01-28T19:28:15.982Z,99754.94
2023-01-28T19:33:18.424Z,99729.59
2023-01-28T19:38:20.915Z,99750.72
2023-01-28T19:43:23.991Z,99723.69
2023-01-28T19:48:26.606Z,99735.38
2023-01-28T19:53:29.211Z,99740.03
2023-01-28T19:58:40.052Z,99740.22
2023-01-28T20:03:42.730Z,99681.38
2023-01-28T20:08:45.642Z,99715.97
2023-01-28T20:13:49.618Z,99714.13
2023-01-28T20:18:57.227Z,99693.38
2023-01-28T20:24:04.775Z,99712.88
2023-01-28T20:29:13.178Z,99707.03
2023-01-28T20:34:17.726Z,99699.28
2023-01-28T20:39:20.077Z,99701.13
2023-01-28T20:44:22.596Z,99654.38
2023-01-28T20:49:27.886Z,99669.31
2023-01-28T20:54:30.339Z,99672.22
2023-01-28T20:59:32.541Z,99666.91
2023-01-28T21:04:37.831Z,99674.06
2023-01-28T21:09:40.243Z,99684.91
2023-01-28T21:14:45.413Z,99667.53
2023-01-28T21:19:47.550Z,99665.84
2023-01-28T21:24:51.380Z,99632.00
2023-01-28T21:29:53.545Z,99661.00
2023-01-28T21:34:55.792Z,99664.44
2023-01-28T21:39:57.935Z,99644.59
2023-01-28T21:45:00.110Z,99648.19
2023-01-28T21:50:02.737Z,99646.53
2023-01-28T21:55:06.051Z,99642.66
2023-01-28T22:00:10.023Z,99605.00
2023-01-28T22:05:15.003Z,99586.50
2023-01-28T22:10:17.755Z,99626.94
2023-01-28T22:15:20.267Z,99617.44
2023-01-28T22:20:22.456Z,99609.66
2023-01-28T22:25:27.235Z,99617.88
2023-01-28T22:30:29.738Z,99607.81
2023-01-28T22:35:32.093Z,99601.38
2023-01-28T22:40:34.889Z,99554.13
2023-01-28T22:45:37.105Z,99603.13
2023-01-28T22:50:39.285Z,99594.31
2023-01-28T22:55:41.453Z,99563.47
2023-01-28T23:00:43.622Z,99591.94
2023-01-28T23:05:46.113Z,99562.94
2023-01-28T23:10:53.598Z,99573.44
2023-01-28T23:16:14.237Z,99522.03
2023-01-28T23:21:37.548Z,99564.28
2023-01-28T23:26:39.769Z,99542.94
2023-01-28T23:31:43.842Z,99548.41
2023-01-28T23:36:46.055Z,99550.16
2023-01-28T23:41:48.154Z,99541.94
2023-01-28T23:46:50.278Z,99513.16
2023-01-28T23:51:52.563Z,99504.75
2023-01-28T23:56:54.871Z,99481.78
